Time;durP1;ratioP1;P1;durP2;ratioP2;P2;SDS_P1;SDS_P2;PMS_P1;PMS_P2;Temp;Humidity;BMP_temperature;BMP_pressure;BME280_temperature;BME280_humidity;BME280_pressure;Samples;Min_cycle;Max_cycle;Signal;HPM_P1;HPM_P2
2021/06/24 00:01:57;;;;;;;2.42;1.48;;;16.60;67.50;;;;;;5025331;28;20025;-91
2021/06/24 00:04:22;;;;;;;3.20;1.55;;;16.60;67.50;;;;;;5016518;28;20032;-92
2021/06/24 00:06:48;;;;;;;3.67;1.85;;;16.60;67.60;;;;;;5022267;28;20610;-91
2021/06/24 00:09:14;;;;;;;3.67;1.80;;;16.60;67.80;;;;;;5021310;28;20109;-91
2021/06/24 00:11:40;;;;;;;3.03;1.80;;;16.60;67.90;;;;;;5033712;28;20487;-92
2021/06/24 00:14:05;;;;;;;3.45;1.80;;;16.50;68.00;;;;;;5015981;28;20041;-92
2021/06/24 00:16:32;;;;;;;4.13;1.80;;;16.50;68.10;;;;;;5016439;28;20033;-93
2021/06/24 00:18:58;;;;;;;2.78;1.50;;;16.50;68.10;;;;;;5033716;28;20013;-92
2021/06/24 00:21:24;;;;;;;3.50;1.80;;;16.40;68.10;;;;;;5033622;28;20435;-91
2021/06/24 00:23:50;;;;;;;3.83;2.33;;;16.40;68.10;;;;;;5002399;28;20526;-91
2021/06/24 00:26:16;;;;;;;2.35;1.50;;;16.30;68.20;;;;;;5025856;28;20025;-92
2021/06/24 00:28:41;;;;;;;3.08;1.88;;;16.30;68.20;;;;;;5034048;28;20594;-91
2021/06/24 00:31:07;;;;;;;4.75;2.40;;;16.30;68.20;;;;;;5033647;28;20030;-92
2021/06/24 00:33:33;;;;;;;4.90;2.00;;;16.40;68.20;;;;;;5033548;28;20037;-93
2021/06/24 00:35:58;;;;;;;4.03;1.73;;;16.40;68.20;;;;;;5034015;28;20057;-92
2021/06/24 00:38:24;;;;;;;2.53;1.50;;;16.40;68.20;;;;;;5020358;28;20136;-90
2021/06/24 00:40:51;;;;;;;3.35;1.50;;;16.40;68.10;;;;;;5032464;28;20460;-90
2021/06/24 00:43:19;;;;;;;3.83;1.60;;;16.40;68.10;;;;;;5033124;28;20032;-90
2021/06/24 00:45:46;;;;;;;2.58;1.58;;;16.40;68.00;;;;;;5032585;28;20033;-92
2021/06/24 00:48:12;;;;;;;2.70;1.75;;;16.40;68.00;;;;;;5037935;28;20024;-91
2021/06/24 00:50:39;;;;;;;3.08;1.73;;;16.40;67.90;;;;;;5047662;28;20112;-91
2021/06/24 00:53:06;;;;;;;3.72;2.15;;;16.40;68.10;;;;;;5037089;28;20096;-91
2021/06/24 00:55:43;;;;;;;1.77;1.40;;;16.40;68.20;;;;;;5032720;28;20116;-90
2021/06/24 00:58:22;;;;;;;3.53;2.35;;;16.40;68.20;;;;;;5014042;28;20021;-91
2021/06/24 01:00:50;;;;;;;3.13;2.00;;;16.30;68.30;;;;;;5016163;28;20029;-90
2021/06/24 01:03:16;;;;;;;2.45;1.95;;;16.20;68.50;;;;;;5032477;28;20013;-91
2021/06/24 01:05:43;;;;;;;5.80;2.10;;;16.30;68.60;;;;;;5015248;28;20120;-91
2021/06/24 01:08:11;;;;;;;3.85;2.25;;;16.30;68.60;;;;;;5015620;28;20063;-93
2021/06/24 01:10:38;;;;;;;3.55;2.03;;;16.20;68.50;;;;;;5015183;28;20488;-91
2021/06/24 01:13:05;;;;;;;3.45;1.80;;;16.20;68.70;;;;;;5032664;28;20076;-93
2021/06/24 01:15:31;;;;;;;3.70;2.05;;;16.10;68.60;;;;;;5015495;28;20021;-93
2021/06/24 01:17:58;;;;;;;2.95;1.58;;;16.10;68.70;;;;;;5014358;28;20025;-93
2021/06/24 01:20:26;;;;;;;3.05;1.92;;;16.10;68.60;;;;;;5032504;28;20108;-93
2021/06/24 01:22:52;;;;;;;2.65;1.77;;;16.20;68.60;;;;;;5032702;28;20099;-92
2021/06/24 01:25:19;;;;;;;4.65;2.10;;;16.20;68.50;;;;;;5032564;28;20499;-91
2021/06/24 01:27:44;;;;;;;4.07;2.00;;;16.20;68.60;;;;;;5033132;28;20028;-91
2021/06/24 01:30:11;;;;;;;3.35;1.88;;;16.20;68.60;;;;;;5032489;28;20407;-91
2021/06/24 01:32:36;;;;;;;3.20;2.10;;;16.10;68.60;;;;;;5032231;28;20376;-92
2021/06/24 01:35:03;;;;;;;3.78;1.90;;;16.10;68.80;;;;;;5032283;28;20047;-91
2021/06/24 01:37:29;;;;;;;2.67;1.80;;;16.10;68.90;;;;;;5032429;28;20025;-89
2021/06/24 01:39:55;;;;;;;2.40;1.90;;;16.10;68.90;;;;;;5031946;28;20029;-90
2021/06/24 01:42:20;;;;;;;3.15;1.90;;;16.10;69.10;;;;;;5014013;28;20364;-89
2021/06/24 01:44:46;;;;;;;4.40;2.13;;;16.10;69.00;;;;;;5032298;28;20063;-90
2021/06/24 01:47:12;;;;;;;4.80;2.10;;;16.00;69.10;;;;;;5031475;28;20395;-90
2021/06/24 01:49:38;;;;;;;3.40;1.92;;;16.00;69.10;;;;;;5011701;28;20045;-91
2021/06/24 01:52:04;;;;;;;2.47;1.85;;;16.00;69.20;;;;;;5025970;28;20116;-91
2021/06/24 01:54:30;;;;;;;3.15;2.10;;;15.90;69.10;;;;;;5029071;28;20407;-94
2021/06/24 01:56:55;;;;;;;4.28;2.55;;;16.00;69.20;;;;;;5032564;28;20064;-89
2021/06/24 01:59:21;;;;;;;3.60;2.20;;;15.90;69.10;;;;;;5032520;28;20387;-92
2021/06/24 02:01:47;;;;;;;4.05;2.15;;;16.00;69.20;;;;;;5032029;28;20030;-93
2021/06/24 02:04:12;;;;;;;3.55;1.75;;;15.90;69.30;;;;;;5032135;28;20026;-92
2021/06/24 02:06:38;;;;;;;3.03;2.17;;;15.90;69.30;;;;;;5031862;28;20045;-90
2021/06/24 02:09:04;;;;;;;2.30;1.80;;;15.90;69.30;;;;;;5014354;28;20021;-91
2021/06/24 02:11:30;;;;;;;2.97;2.17;;;15.90;69.30;;;;;;5032262;28;20075;-94
2021/06/24 02:13:56;;;;;;;2.35;1.83;;;15.90;69.10;;;;;;5014170;28;20487;-91
2021/06/24 02:16:22;;;;;;;2.70;1.90;;;15.90;69.10;;;;;;5031841;28;20028;-91
2021/06/24 02:18:48;;;;;;;2.85;1.63;;;15.90;69.10;;;;;;5030949;28;20036;-91
2021/06/24 02:21:13;;;;;;;1.80;1.50;;;16.00;69.10;;;;;;5014024;28;20037;-91
2021/06/24 02:23:39;;;;;;;3.35;1.80;;;16.00;69.10;;;;;;5027384;28;20119;-91
2021/06/24 02:26:04;;;;;;;3.42;1.88;;;16.00;69.00;;;;;;5014400;28;20174;-91
2021/06/24 02:28:30;;;;;;;2.38;1.70;;;15.90;69.00;;;;;;5025313;28;20033;-91
2021/06/24 02:30:56;;;;;;;5.53;2.00;;;15.90;69.00;;;;;;5012073;28;20231;-90
2021/06/24 02:33:23;;;;;;;4.03;2.05;;;15.90;69.10;;;;;;5013474;28;20022;-91
2021/06/24 02:35:55;;;;;;;4.57;2.33;;;15.90;69.30;;;;;;5028574;28;20061;-91
2021/06/24 02:38:21;;;;;;;2.85;1.70;;;15.80;69.30;;;;;;5028359;28;20021;-94
2021/06/24 02:40:47;;;;;;;3.10;2.00;;;15.80;69.40;;;;;;5031953;28;20029;-93
2021/06/24 02:43:12;;;;;;;3.45;1.73;;;15.80;69.50;;;;;;5031163;28;20013;-92
2021/06/24 02:45:41;;;;;;;4.60;2.00;;;15.80;69.50;;;;;;5014352;28;20034;-91
2021/06/24 02:48:07;;;;;;;2.42;1.88;;;15.80;69.50;;;;;;5005177;28;20049;-91
2021/06/24 02:50:32;;;;;;;3.60;2.28;;;15.80;69.50;;;;;;5008741;28;20543;-91
2021/06/24 02:52:58;;;;;;;4.65;2.03;;;15.70;69.60;;;;;;5028278;28;20029;-91
2021/06/24 02:55:30;;;;;;;3.58;2.20;;;15.70;69.80;;;;;;5029607;28;20029;-91
2021/06/24 02:57:56;;;;;;;4.00;2.55;;;15.60;69.80;;;;;;5014090;28;20480;-91
2021/06/24 03:00:22;;;;;;;3.97;2.22;;;15.60;70.00;;;;;;5031150;28;20017;-91
2021/06/24 03:02:47;;;;;;;3.35;2.38;;;15.60;70.00;;;;;;5035325;28;20018;-92
2021/06/24 03:05:15;;;;;;;3.40;2.15;;;15.50;70.10;;;;;;5031786;28;20489;-91
2021/06/24 03:07:40;;;;;;;3.40;2.10;;;15.50;70.20;;;;;;5013818;28;20036;-93
2021/06/24 03:10:07;;;;;;;4.68;2.60;;;15.60;70.20;;;;;;5034074;28;20022;-93
2021/06/24 03:12:32;;;;;;;3.08;1.95;;;15.50;70.30;;;;;;5017409;28;20072;-93
2021/06/24 03:14:58;;;;;;;2.47;2.20;;;15.50;70.30;;;;;;5017750;28;20045;-92
2021/06/24 03:17:23;;;;;;;4.65;2.30;;;15.50;70.50;;;;;;5036010;28;20431;-90
2021/06/24 03:19:49;;;;;;;3.15;2.20;;;15.50;70.60;;;;;;5030489;28;20715;-90
2021/06/24 03:22:14;;;;;;;3.38;2.10;;;15.50;70.60;;;;;;5014778;28;20450;-91
2021/06/24 03:24:40;;;;;;;3.50;2.35;;;15.50;70.80;;;;;;5022439;28;20060;-90
2021/06/24 03:27:06;;;;;;;4.43;2.60;;;15.40;70.80;;;;;;5036322;28;20090;-91
2021/06/24 03:29:31;;;;;;;4.20;1.95;;;15.40;70.90;;;;;;5034666;28;20033;-93
2021/06/24 03:31:57;;;;;;;3.33;2.22;;;15.40;71.00;;;;;;5034319;28;20807;-91
2021/06/24 03:34:22;;;;;;;3.70;2.38;;;15.40;71.00;;;;;;5034470;28;20033;-91
2021/06/24 03:36:48;;;;;;;4.28;2.35;;;15.40;71.00;;;;;;5034748;28;20124;-91
2021/06/24 03:39:13;;;;;;;3.60;2.40;;;15.30;71.10;;;;;;5048659;28;20021;-91
2021/06/24 03:41:39;;;;;;;4.18;2.67;;;15.30;71.20;;;;;;5018555;28;20553;-93
2021/06/24 03:44:05;;;;;;;5.22;2.22;;;15.30;71.90;;;;;;5020452;28;20029;-91
2021/06/24 03:46:32;;;;;;;5.10;2.90;;;15.30;71.30;;;;;;5039887;28;20512;-93
2021/06/24 03:48:58;;;;;;;4.00;2.30;;;15.20;71.50;;;;;;5016862;28;20055;-93
2021/06/24 03:51:23;;;;;;;3.40;2.25;;;15.20;71.50;;;;;;5016892;28;20025;-92
2021/06/24 03:53:49;;;;;;;3.38;1.95;;;15.30;71.50;;;;;;5015841;28;20086;-93
2021/06/24 03:56:15;;;;;;;4.25;2.00;;;15.30;71.50;;;;;;5033439;28;20040;-91
2021/06/24 03:58:40;;;;;;;2.75;2.40;;;15.30;71.30;;;;;;5031807;28;20018;-92
2021/06/24 04:01:06;;;;;;;3.00;2.20;;;15.30;71.50;;;;;;5034316;28;20033;-92
2021/06/24 04:03:31;;;;;;;3.60;1.90;;;15.30;71.60;;;;;;5032342;28;20025;-89
2021/06/24 04:05:57;;;;;;;3.83;2.10;;;15.30;71.40;;;;;;5034078;28;20033;-90
2021/06/24 04:08:23;;;;;;;3.22;2.08;;;15.30;71.30;;;;;;5033026;28;20024;-90
2021/06/24 04:10:49;;;;;;;2.80;2.03;;;15.40;71.30;;;;;;5034179;28;20049;-91
2021/06/24 04:13:15;;;;;;;3.38;2.20;;;15.40;71.20;;;;;;5029691;28;20550;-92
2021/06/24 04:15:40;;;;;;;2.28;1.88;;;15.50;71.20;;;;;;5026480;28;20022;-92
2021/06/24 04:18:07;;;;;;;2.38;1.60;;;15.50;71.10;;;;;;5034816;28;20117;-91
2021/06/24 04:20:34;;;;;;;2.22;1.70;;;15.50;70.90;;;;;;5031706;28;20484;-89
2021/06/24 04:23:00;;;;;;;3.33;1.95;;;15.50;70.80;;;;;;5024281;28;20029;-89
2021/06/24 04:25:26;;;;;;;2.65;1.90;;;15.60;70.80;;;;;;5032906;28;20021;-91
2021/06/24 04:27:52;;;;;;;4.57;2.17;;;15.60;70.80;;;;;;5033717;28;20022;-92
2021/06/24 04:30:18;;;;;;;3.05;1.92;;;15.60;70.70;;;;;;5032764;28;20056;-92
2021/06/24 04:32:44;;;;;;;4.53;2.00;;;15.60;70.70;;;;;;5032292;28;20018;-90
2021/06/24 04:35:11;;;;;;;4.05;2.30;;;15.60;70.70;;;;;;5033299;28;20017;-90
2021/06/24 04:37:37;;;;;;;3.13;2.00;;;15.60;70.70;;;;;;5028866;28;20032;-93
2021/06/24 04:40:05;;;;;;;4.00;2.08;;;15.60;70.60;;;;;;5033557;28;20052;-92
2021/06/24 04:42:31;;;;;;;1.98;1.67;;;15.70;70.70;;;;;;5013732;28;20022;-93
2021/06/24 04:44:56;;;;;;;2.25;1.85;;;15.60;70.60;;;;;;5027545;28;20022;-94
2021/06/24 04:47:22;;;;;;;4.18;2.10;;;15.60;70.50;;;;;;5017201;28;20096;-93
2021/06/24 04:49:48;;;;;;;3.22;2.30;;;15.60;70.60;;;;;;5034367;28;20025;-93
2021/06/24 04:52:15;;;;;;;2.38;1.42;;;15.70;70.60;;;;;;5033139;28;20155;-94
2021/06/24 04:54:42;;;;;;;2.35;1.70;;;15.70;70.50;;;;;;5031681;28;20025;-94
2021/06/24 04:57:10;;;;;;;3.08;1.90;;;15.70;70.30;;;;;;5033734;28;20017;-94
2021/06/24 04:59:36;;;;;;;2.72;1.95;;;15.80;70.30;;;;;;5031971;28;20033;-92
2021/06/24 05:02:02;;;;;;;3.72;2.00;;;15.80;70.20;;;;;;5032738;28;20017;-92
2021/06/24 05:04:28;;;;;;;2.95;1.75;;;15.90;70.30;;;;;;5033011;28;20021;-92
2021/06/24 05:06:57;;;;;;;5.28;2.03;;;15.90;70.10;;;;;;5024191;28;20040;-89
2021/06/24 05:09:32;;;;;;;3.00;2.20;;;15.90;70.00;;;;;;5025230;28;20076;-95
2021/06/24 05:11:58;;;;;;;2.28;2.00;;;16.00;70.10;;;;;;5030499;28;20092;-94
2021/06/24 05:14:23;;;;;;;3.60;2.20;;;16.00;70.10;;;;;;5028851;28;20017;-90
2021/06/24 05:16:49;;;;;;;2.05;1.63;;;16.00;70.10;;;;;;5040031;28;20178;-91
2021/06/24 05:19:23;;;;;;;2.95;1.88;;;16.00;70.00;;;;;;5033031;28;20022;-93
2021/06/24 05:21:49;;;;;;;4.05;2.20;;;16.00;69.90;;;;;;5032557;28;20041;-91
2021/06/24 05:24:15;;;;;;;2.42;2.17;;;16.00;70.00;;;;;;5032080;28;20056;-91
2021/06/24 05:26:40;;;;;;;2.90;2.05;;;16.00;70.10;;;;;;5031437;28;20463;-91
2021/06/24 05:29:06;;;;;;;5.60;2.55;;;15.90;70.10;;;;;;5031832;28;20040;-92
2021/06/24 05:31:31;;;;;;;3.70;2.13;;;15.90;70.20;;;;;;5031910;28;20041;-93
2021/06/24 05:33:57;;;;;;;3.13;2.22;;;15.90;70.10;;;;;;5032712;28;20033;-92
2021/06/24 05:36:23;;;;;;;6.32;2.30;;;15.90;70.20;;;;;;5027820;28;20020;-94
2021/06/24 05:38:48;;;;;;;4.53;2.13;;;16.00;70.30;;;;;;5034204;28;20331;-94
2021/06/24 05:41:14;;;;;;;3.03;1.90;;;16.00;70.10;;;;;;5032839;28;20117;-95
2021/06/24 05:43:40;;;;;;;4.35;2.22;;;16.10;70.00;;;;;;5034377;28;20045;-93
2021/06/24 05:46:05;;;;;;;3.67;2.55;;;16.20;70.00;;;;;;5034526;28;20472;-95
2021/06/24 05:48:33;;;;;;;3.92;2.33;;;16.20;69.90;;;;;;5017126;28;20026;-91
2021/06/24 05:50:59;;;;;;;5.32;2.47;;;16.20;69.90;;;;;;5030166;28;20104;-86
2021/06/24 05:53:25;;;;;;;4.00;2.50;;;16.20;69.90;;;;;;5025042;28;20378;-91
2021/06/24 05:55:51;;;;;;;3.25;2.40;;;16.20;69.90;;;;;;4995487;28;20089;-90
2021/06/24 05:58:25;;;;;;;4.50;2.65;;;16.20;70.00;;;;;;4995310;28;20032;-88
2021/06/24 06:00:52;;;;;;;4.25;2.38;;;16.20;69.90;;;;;;5017646;28;20112;-89
2021/06/24 06:03:19;;;;;;;4.53;2.50;;;16.30;70.00;;;;;;5019959;28;20026;-91
2021/06/24 06:05:45;;;;;;;5.65;2.40;;;16.30;69.80;;;;;;5023670;28;20029;-91
2021/06/24 06:08:11;;;;;;;2.33;2.13;;;16.30;69.70;;;;;;5007879;28;20033;-92
2021/06/24 06:10:38;;;;;;;4.63;2.60;;;16.40;69.60;;;;;;5005330;28;20048;-93
2021/06/24 06:13:06;;;;;;;5.32;2.92;;;16.40;69.70;;;;;;5032269;28;20048;-92
2021/06/24 06:15:36;;;;;;;4.18;2.75;;;16.30;69.60;;;;;;5014634;28;20063;-92
2021/06/24 06:18:19;;;;;;;3.33;2.55;;;16.30;69.70;;;;;;5031946;28;20029;-92
2021/06/24 06:20:45;;;;;;;;;;;16.30;69.70;;;;;;5006009;28;20028;-91
2021/06/24 06:23:12;;;;;;;4.45;1.90;;;16.30;69.60;;;;;;5027978;28;19912;-92
2021/06/24 06:25:38;;;;;;;3.17;2.58;;;16.40;69.50;;;;;;5032202;28;20029;-92
2021/06/24 06:28:04;;;;;;;4.30;2.13;;;16.40;69.40;;;;;;5032059;28;22068;-92
2021/06/24 06:30:29;;;;;;;2.65;1.80;;;16.50;69.40;;;;;;5032431;28;20030;-92
2021/06/24 06:32:55;;;;;;;5.70;3.30;;;16.60;69.50;;;;;;5013119;28;20022;-94
2021/06/24 06:35:21;;;;;;;7.55;3.90;;;16.50;68.90;;;;;;5029560;28;20025;-93
2021/06/24 06:37:46;;;;;;;4.15;2.30;;;16.30;69.40;;;;;;5014570;28;20018;-92
2021/06/24 06:40:12;;;;;;;3.08;2.13;;;16.30;69.60;;;;;;5032216;28;20026;-92
2021/06/24 06:42:39;;;;;;;3.80;2.00;;;16.50;69.40;;;;;;5031776;28;20019;-92
2021/06/24 06:45:13;;;;;;;2.90;2.08;;;16.60;69.10;;;;;;5035283;28;20053;-94
2021/06/24 06:47:39;;;;;;;5.22;2.35;;;16.70;68.60;;;;;;5018424;28;20037;-95
2021/06/24 06:50:06;;;;;;;3.67;2.63;;;16.80;68.00;;;;;;5006743;28;20034;-92
2021/06/24 06:52:31;;;;;;;4.28;2.80;;;16.90;67.80;;;;;;5034899;28;20024;-90
2021/06/24 06:54:57;;;;;;;3.65;2.22;;;16.90;67.60;;;;;;5027838;28;20431;-90
2021/06/24 06:57:23;;;;;;;2.85;2.00;;;17.10;67.40;;;;;;5029633;28;20018;-91
2021/06/24 06:59:48;;;;;;;4.50;2.22;;;17.20;67.00;;;;;;5028787;28;20028;-86
2021/06/24 07:02:14;;;;;;;2.63;2.30;;;17.30;66.70;;;;;;5030219;28;20175;-89
2021/06/24 07:04:40;;;;;;;3.30;2.20;;;17.40;66.20;;;;;;5030059;28;20030;-90
2021/06/24 07:07:05;;;;;;;3.85;2.00;;;17.60;66.00;;;;;;5011686;28;20068;-91
2021/06/24 07:09:31;;;;;;;4.45;2.30;;;17.60;65.70;;;;;;5017290;28;20032;-90
2021/06/24 07:11:56;;;;;;;2.70;1.95;;;17.70;65.40;;;;;;5015347;28;20052;-86
2021/06/24 07:14:25;;;;;;;3.33;1.90;;;17.70;65.10;;;;;;5013075;28;20108;-90
2021/06/24 07:16:50;;;;;;;3.60;2.50;;;17.80;65.10;;;;;;5006781;28;20123;-87
2021/06/24 07:19:16;;;;;;;3.85;2.10;;;17.70;64.60;;;;;;5026446;28;20650;-87
2021/06/24 07:21:42;;;;;;;2.67;1.55;;;17.80;64.80;;;;;;5030665;28;20029;-88
2021/06/24 07:24:11;;;;;;;6.10;3.10;;;17.80;64.60;;;;;;5030866;28;20484;-89
2021/06/24 07:26:39;;;;;;;2.83;2.05;;;17.70;63.90;;;;;;5024239;28;20115;-88
2021/06/24 07:29:05;;;;;;;2.20;1.70;;;17.80;64.60;;;;;;5015732;28;20037;-88
2021/06/24 07:31:31;;;;;;;2.20;1.50;;;17.90;64.40;;;;;;5030810;28;20021;-87
2021/06/24 07:33:57;;;;;;;3.03;1.80;;;18.10;64.20;;;;;;5014791;28;20029;-90
2021/06/24 07:36:23;;;;;;;3.15;1.83;;;18.20;64.00;;;;;;5035423;28;20071;-91
2021/06/24 07:38:48;;;;;;;1.75;1.45;;;18.30;63.70;;;;;;5039555;28;20475;-91
2021/06/24 07:41:14;;;;;;;1.85;1.67;;;18.40;63.40;;;;;;5026290;28;20022;-91
2021/06/24 07:43:42;;;;;;;3.13;1.48;;;18.50;63.00;;;;;;5027056;28;20480;-90
2021/06/24 07:46:09;;;;;;;2.60;1.80;;;18.70;62.70;;;;;;5018308;28;20064;-91
2021/06/24 07:48:35;;;;;;;2.15;1.40;;;18.70;62.20;;;;;;5014296;28;20068;-91
2021/06/24 07:51:03;;;;;;;2.80;2.05;;;18.80;62.00;;;;;;5013502;28;20025;-89
2021/06/24 07:53:31;;;;;;;3.30;2.38;;;18.80;61.80;;;;;;5013825;28;20034;-90
2021/06/24 07:55:58;;;;;;;4.32;2.20;;;18.90;60.80;;;;;;5030049;28;20072;-88
2021/06/24 07:58:24;;;;;;;5.55;2.60;;;18.70;60.70;;;;;;5025118;28;20028;-91
2021/06/24 08:00:49;;;;;;;4.05;2.22;;;18.40;60.30;;;;;;5031563;28;20104;-89
2021/06/24 08:03:22;;;;;;;4.50;1.77;;;18.40;61.20;;;;;;5024441;28;20439;-89
2021/06/24 08:05:50;;;;;;;2.10;1.60;;;18.60;61.20;;;;;;5032885;28;20049;-89
2021/06/24 08:08:16;;;;;;;3.58;2.00;;;18.70;60.70;;;;;;5031437;28;20041;-91
2021/06/24 08:10:42;;;;;;;2.75;1.95;;;18.80;60.60;;;;;;5031787;28;20056;-89
2021/06/24 08:13:07;;;;;;;4.35;2.00;;;18.90;60.40;;;;;;5021087;28;20053;-91
2021/06/24 08:15:41;;;;;;;3.33;2.30;;;18.90;60.30;;;;;;5044640;28;20044;-89
2021/06/24 08:18:07;;;;;;;2.75;2.10;;;19.00;60.00;;;;;;5023520;28;20029;-90
2021/06/24 08:20:34;;;;;;;3.70;2.05;;;18.90;59.90;;;;;;5030256;28;20025;-89
2021/06/24 08:23:00;;;;;;;2.40;1.73;;;19.00;60.00;;;;;;5032959;28;20037;-88
2021/06/24 08:25:25;;;;;;;3.67;2.10;;;19.20;60.00;;;;;;5037220;28;20068;-88
2021/06/24 08:27:51;;;;;;;2.92;1.70;;;19.20;59.80;;;;;;5031286;28;20045;-88
2021/06/24 08:30:18;;;;;;;3.17;2.15;;;19.30;59.70;;;;;;5030816;28;20405;-89
2021/06/24 08:32:47;;;;;;;4.72;2.40;;;19.40;59.30;;;;;;5030072;28;20029;-91
2021/06/24 08:35:12;;;;;;;2.38;1.92;;;19.20;58.80;;;;;;5033297;28;20026;-87
2021/06/24 08:37:40;;;;;;;2.70;1.95;;;19.20;59.10;;;;;;5032503;28;20035;-89
2021/06/24 08:40:08;;;;;;;2.13;1.40;;;19.20;59.20;;;;;;5031959;28;20044;-90
2021/06/24 08:42:35;;;;;;;2.05;1.77;;;19.30;59.30;;;;;;5030422;28;20032;-90
2021/06/24 08:45:02;;;;;;;2.90;2.00;;;19.30;59.00;;;;;;5031691;28;20109;-91
2021/06/24 08:47:31;;;;;;;3.25;1.90;;;19.30;59.00;;;;;;5030476;28;20140;-91
2021/06/24 08:49:58;;;;;;;2.38;1.85;;;19.30;58.80;;;;;;5033005;28;20028;-90
2021/06/24 08:52:27;;;;;;;3.03;2.47;;;19.20;58.70;;;;;;5031922;28;20029;-90
2021/06/24 08:54:54;;;;;;;3.30;2.05;;;19.10;58.70;;;;;;5031306;28;20033;-91
2021/06/24 08:57:30;;;;;;;5.63;3.00;;;19.10;59.00;;;;;;5013637;28;20053;-92
2021/06/24 08:59:58;;;;;;;3.97;2.20;;;19.00;58.90;;;;;;5011442;28;20021;-88
2021/06/24 09:02:45;;;;;;;2.30;1.92;;;18.90;59.30;;;;;;5027707;28;20028;-89
2021/06/24 09:05:12;;;;;;;2.30;2.10;;;19.00;59.40;;;;;;5016549;28;20029;-87
2021/06/24 09:07:53;;;;;;;2.63;2.03;;;19.10;59.30;;;;;;5015808;28;20044;-89
2021/06/24 09:10:20;;;;;;;5.05;3.13;;;19.10;59.20;;;;;;5014107;28;20053;-93
2021/06/24 09:12:55;;;;;;;2.90;1.95;;;19.00;58.60;;;;;;5021057;28;20489;-92
2021/06/24 09:15:22;;;;;;;2.55;2.15;;;18.90;59.10;;;;;;5031829;28;20483;-91
2021/06/24 09:17:48;;;;;;;3.90;2.05;;;18.90;59.30;;;;;;5031320;28;20038;-87
2021/06/24 09:20:24;;;;;;;2.95;2.10;;;19.00;59.40;;;;;;5012780;28;20028;-88
2021/06/24 09:23:15;;;;;;;2.30;2.10;;;18.90;59.40;;;;;;5030481;28;20037;-91
2021/06/24 09:25:48;;;;;;;2.72;2.05;;;19.00;59.40;;;;;;5031970;28;20021;-89
2021/06/24 09:28:15;;;;;;;2.75;2.55;;;19.00;59.30;;;;;;5035081;28;20040;-89
2021/06/24 09:30:45;;;;;;;3.05;2.47;;;18.90;59.10;;;;;;5025537;28;20101;-90
2021/06/24 09:33:13;;;;;;;4.78;2.60;;;18.90;59.40;;;;;;5032213;28;20559;-90
2021/06/24 09:35:40;;;;;;;3.08;2.40;;;18.80;59.30;;;;;;5017177;28;20017;-92
2021/06/24 09:38:11;;;;;;;3.00;1.95;;;18.90;59.50;;;;;;5014933;28;20076;-90
2021/06/24 09:40:53;;;;;;;3.72;1.95;;;18.90;59.60;;;;;;5027566;28;20036;-94
2021/06/24 09:43:27;;;;;;;3.25;2.05;;;19.00;59.50;;;;;;5032042;28;20033;-90
2021/06/24 09:46:18;;;;;;;3.47;2.13;;;19.00;59.40;;;;;;5028463;28;20103;-91
2021/06/24 09:48:51;;;;;;;5.70;3.17;;;19.10;59.50;;;;;;5014578;28;20128;-91
2021/06/24 09:51:26;;;;;;;2.50;2.30;;;18.90;59.10;;;;;;5006904;28;20025;-92
2021/06/24 09:54:13;;;;;;;3.60;2.13;;;18.80;59.60;;;;;;5030975;28;20021;-91
2021/06/24 09:56:48;;;;;;;3.72;3.05;;;18.80;59.80;;;;;;5030642;28;20022;-92
2021/06/24 09:59:16;;;;;;;4.13;2.47;;;18.80;59.80;;;;;;5016467;28;20541;-89
2021/06/24 10:01:44;;;;;;;4.30;2.13;;;18.80;59.90;;;;;;5020100;28;20063;-90
2021/06/24 10:04:29;;;;;;;3.30;2.47;;;18.90;59.90;;;;;;5006334;28;20033;-90
2021/06/24 10:06:59;;;;;;;5.63;3.53;;;18.90;59.90;;;;;;5022704;28;20045;-89
2021/06/24 10:09:26;;;;;;;3.67;2.67;;;18.90;59.70;;;;;;5020196;28;20072;-89
2021/06/24 10:11:54;;;;;;;4.78;3.30;;;18.90;59.90;;;;;;5007699;28;20029;-90
2021/06/24 10:14:20;;;;;;;2.13;1.92;;;18.60;59.80;;;;;;5031646;28;20029;-88
2021/06/24 10:16:51;;;;;;;2.65;2.15;;;18.60;60.30;;;;;;5018372;28;20017;-93
2021/06/24 10:19:19;;;;;;;4.93;3.40;;;18.70;60.50;;;;;;5035768;28;20029;-93
2021/06/24 10:21:50;;;;;;;4.75;3.08;;;18.50;60.50;;;;;;5018137;28;20065;-92
2021/06/24 10:24:21;;;;;;;4.55;3.75;;;18.50;60.60;;;;;;5013421;28;20080;-92
2021/06/24 10:26:52;;;;;;;5.68;4.03;;;18.50;60.80;;;;;;5015177;28;20030;-93
2021/06/24 10:29:21;;;;;;;5.00;2.85;;;18.30;60.70;;;;;;5018019;28;20021;-92
2021/06/24 10:31:55;;;;;;;3.55;2.33;;;18.30;61.30;;;;;;5039800;28;20060;-90
2021/06/24 10:34:41;;;;;;;2.78;1.88;;;18.50;61.20;;;;;;5022178;28;20013;-89
2021/06/24 10:37:12;;;;;;;3.85;2.72;;;18.80;60.90;;;;;;5032853;28;20080;-92
2021/06/24 10:39:39;;;;;;;3.85;2.50;;;18.80;60.60;;;;;;5017599;28;20041;-90
2021/06/24 10:42:15;;;;;;;4.13;2.80;;;19.00;60.50;;;;;;5040980;28;20041;-92
2021/06/24 10:44:58;;;;;;;2.50;2.30;;;19.10;60.30;;;;;;5014336;28;20095;-91
2021/06/24 10:47:40;;;;;;;4.43;2.58;;;19.20;60.00;;;;;;5015754;28;20033;-91
2021/06/24 10:50:31;;;;;;;3.58;2.78;;;19.20;60.00;;;;;;5031592;28;20037;-90
2021/06/24 10:53:04;;;;;;;3.72;3.05;;;19.30;59.80;;;;;;5031013;28;20108;-90
2021/06/24 10:55:35;;;;;;;2.97;2.33;;;19.40;59.80;;;;;;5028626;28;20499;-88
2021/06/24 10:58:27;;;;;;;3.28;2.47;;;19.40;59.70;;;;;;5012619;28;20614;-90
2021/06/24 11:01:00;;;;;;;4.53;2.47;;;19.50;59.60;;;;;;5017719;28;20017;-96
2021/06/24 11:03:37;;;;;;;2.78;2.05;;;19.40;59.60;;;;;;5016226;28;20033;-94
2021/06/24 11:06:14;;;;;;;4.15;2.42;;;19.50;59.70;;;;;;5019165;28;20037;-95
2021/06/24 11:08:41;;;;;;;2.58;2.33;;;19.50;59.80;;;;;;5025715;28;20040;-95
2021/06/24 11:11:14;;;;;;;5.03;2.88;;;19.60;59.60;;;;;;5028974;28;20071;-95
2021/06/24 11:13:51;;;;;;;4.88;3.38;;;19.60;59.50;;;;;;5020588;28;20097;-95
2021/06/24 11:16:18;;;;;;;5.60;3.40;;;19.60;59.30;;;;;;5037870;28;20029;-94
2021/06/24 11:19:04;;;;;;;3.97;3.10;;;19.60;59.40;;;;;;5024022;28;20033;-95
2021/06/24 11:21:30;;;;;;;3.47;2.30;;;19.60;59.60;;;;;;5035452;28;20476;-96
2021/06/24 11:24:02;;;;;;;2.28;1.83;;;19.70;59.60;;;;;;5024215;28;20071;-95
2021/06/24 11:26:31;;;;;;;1.83;1.63;;;19.80;59.60;;;;;;5039225;28;20050;-93
2021/06/24 11:29:39;;;;;;;4.20;3.00;;;19.90;59.50;;;;;;5025524;28;20029;-94
2021/06/24 11:32:25;;;;;;;4.35;3.35;;;19.70;59.20;;;;;;5026547;28;20032;-94
2021/06/24 11:35:01;;;;;;;3.97;2.75;;;19.50;59.30;;;;;;5022308;28;20029;-92
2021/06/24 11:37:32;;;;;;;3.35;2.13;;;19.40;59.80;;;;;;5015259;28;20025;-94
2021/06/24 11:40:09;;;;;;;3.47;2.50;;;19.50;59.90;;;;;;5017988;28;20030;-94
2021/06/24 11:42:43;;;;;;;3.78;3.20;;;19.60;59.80;;;;;;5036782;28;20071;-94
2021/06/24 11:45:15;;;;;;;5.53;3.90;;;19.60;59.40;;;;;;4998110;28;20042;-93
2021/06/24 11:47:45;;;;;;;3.30;2.70;;;19.50;59.80;;;;;;5010194;28;20033;-94
2021/06/24 12:04:31;;;;;;;2.83;2.47;;;19.80;59.40;;;;;;5034783;28;20044;-93
2021/06/24 12:07:00;;;;;;;2.85;2.42;;;19.90;59.50;;;;;;5019908;28;20129;-93
2021/06/24 12:09:51;;;;;;;3.42;2.38;;;19.90;59.60;;;;;;5016522;28;20383;-95
2021/06/24 12:12:20;;;;;;;2.83;2.60;;;20.00;59.60;;;;;;5020242;28;20485;-94
2021/06/24 12:14:47;;;;;;;5.18;2.88;;;20.00;59.50;;;;;;5019972;28;20379;-93
2021/06/24 12:17:24;;;;;;;5.35;4.63;;;20.00;59.50;;;;;;5014697;28;21369;-94
2021/06/24 12:20:13;;;;;;;4.93;2.92;;;19.80;59.20;;;;;;5018495;28;20029;-92
2021/06/24 12:22:59;;;;;;;4.20;2.92;;;19.80;59.50;;;;;;5029103;28;20030;-94
2021/06/24 12:25:28;;;;;;;3.67;2.63;;;19.90;59.70;;;;;;5002384;28;20079;-93
2021/06/24 12:27:56;;;;;;;2.90;2.20;;;20.00;59.50;;;;;;5034819;28;20037;-94
2021/06/24 12:30:27;;;;;;;4.97;3.80;;;20.10;59.30;;;;;;5018624;28;20116;-93
2021/06/24 12:33:06;;;;;;;3.55;2.95;;;20.00;59.10;;;;;;5033722;28;20056;-94
2021/06/24 12:35:40;;;;;;;3.47;2.97;;;20.10;59.20;;;;;;5002550;28;20078;-91
2021/06/24 12:38:13;;;;;;;3.53;2.55;;;20.10;59.20;;;;;;5016498;28;20429;-94
2021/06/24 12:40:49;;;;;;;4.03;2.88;;;20.10;59.20;;;;;;5015424;28;20017;-94
2021/06/24 12:43:28;;;;;;;3.33;2.83;;;20.10;59.20;;;;;;5016420;28;20060;-94
2021/06/24 12:45:59;;;;;;;5.13;4.18;;;20.20;59.20;;;;;;5017081;28;20113;-96
2021/06/24 12:48:34;;;;;;;3.50;3.20;;;20.10;59.10;;;;;;5016581;28;20511;-95
2021/06/24 12:51:26;;;;;;;3.30;2.92;;;20.10;59.20;;;;;;5017207;28;20276;-95
2021/06/24 12:53:55;;;;;;;;;;;20.40;59.10;;;;;;5033314;28;20021;-92
2021/06/24 12:56:25;;;;;;;4.45;3.42;;;20.50;59.00;;;;;;5034036;28;19913;-95
2021/06/24 12:59:04;;;;;;;4.75;4.15;;;20.60;58.80;;;;;;5017287;28;20033;-94
2021/06/24 13:01:36;;;;;;;6.45;4.07;;;20.60;58.50;;;;;;5032864;28;20064;-93
2021/06/24 13:04:24;;;;;;;5.68;4.43;;;20.60;58.70;;;;;;5102851;27;20197;-95
2021/06/24 13:06:52;;;;;;;5.90;4.45;;;20.60;58.50;;;;;;5098801;28;20020;-95
2021/06/24 13:09:30;;;;;;;5.35;3.30;;;20.40;58.60;;;;;;5092146;28;20024;-94
2021/06/24 13:12:07;;;;;;;4.07;2.80;;;20.50;58.80;;;;;;5090911;28;20023;-94